sensor_id;sensor_type;location;lat;lon;timestamp;P1;durP1;ratioP1;P2;durP2;ratioP2
18973;SDS011;9621;48.690;9.466;2022-09-09T05:50:18;9.68;;;3.25;;
18973;SDS011;9621;48.690;9.466;2022-09-09T05:52:45;9.15;;;3.45;;
18973;SDS011;9621;48.690;9.466;2022-09-09T06:13:22;5.93;;;2.83;;
18973;SDS011;9621;48.690;9.466;2022-09-09T06:23:35;6.45;;;2.78;;
18973;SDS011;9621;48.690;9.466;2022-09-09T06:26:06;4.55;;;2.90;;
18973;SDS011;9621;48.690;9.466;2022-09-09T06:38:58;3.30;;;2.70;;
18973;SDS011;9621;48.690;9.466;2022-09-09T06:41:26;4.88;;;2.38;;
18973;SDS011;9621;48.690;9.466;2022-09-09T06:43:55;5.47;;;3.08;;
18973;SDS011;9621;48.690;9.466;2022-09-09T06:46:22;8.45;;;3.10;;
18973;SDS011;9621;48.690;9.466;2022-09-09T06:48:53;8.25;;;3.08;;
18973;SDS011;9621;48.690;9.466;2022-09-09T06:51:22;7.32;;;2.70;;
18973;SDS011;9621;48.690;9.466;2022-09-09T06:53:51;3.88;;;2.35;;
18973;SDS011;9621;48.690;9.466;2022-09-09T06:56:22;4.28;;;2.50;;
18973;SDS011;9621;48.690;9.466;2022-09-09T06:58:49;3.00;;;2.13;;
18973;SDS011;9621;48.690;9.466;2022-09-09T07:01:19;4.85;;;2.58;;
18973;SDS011;9621;48.690;9.466;2022-09-09T07:03:48;5.25;;;2.20;;
18973;SDS011;9621;48.690;9.466;2022-09-09T07:06:17;2.85;;;2.38;;
18973;SDS011;9621;48.690;9.466;2022-09-09T07:08:48;6.28;;;2.33;;
18973;SDS011;9621;48.690;9.466;2022-09-09T07:11:16;3.38;;;2.42;;
18973;SDS011;9621;48.690;9.466;2022-09-09T07:13:45;6.85;;;2.10;;
18973;SDS011;9621;48.690;9.466;2022-09-09T07:16:13;4.60;;;2.40;;
18973;SDS011;9621;48.690;9.466;2022-09-09T07:18:41;5.00;;;2.35;;
18973;SDS011;9621;48.690;9.466;2022-09-09T07:21:09;9.00;;;2.30;;
18973;SDS011;9621;48.690;9.466;2022-09-09T07:23:38;5.55;;;2.10;;
18973;SDS011;9621;48.690;9.466;2022-09-09T07:26:07;2.95;;;2.10;;
18973;SDS011;9621;48.690;9.466;2022-09-09T07:28:35;7.85;;;2.10;;
18973;SDS011;9621;48.690;9.466;2022-09-09T07:31:04;5.72;;;2.22;;
18973;SDS011;9621;48.690;9.466;2022-09-09T07:33:33;2.97;;;1.60;;
18973;SDS011;9621;48.690;9.466;2022-09-09T07:36:05;7.38;;;2.95;;
18973;SDS011;9621;48.690;9.466;2022-09-09T07:38:37;6.22;;;2.17;;
18973;SDS011;9621;48.690;9.466;2022-09-09T07:41:05;4.38;;;2.00;;
18973;SDS011;9621;48.690;9.466;2022-09-09T07:43:36;3.60;;;1.65;;
18973;SDS011;9621;48.690;9.466;2022-09-09T07:46:06;5.55;;;1.83;;
18973;SDS011;9621;48.690;9.466;2022-09-09T07:48:33;3.42;;;1.50;;
18973;SDS011;9621;48.690;9.466;2022-09-09T07:51:07;4.57;;;1.65;;
18973;SDS011;9621;48.690;9.466;2022-09-09T07:53:35;6.43;;;2.08;;
18973;SDS011;9621;48.690;9.466;2022-09-09T07:56:04;4.70;;;1.60;;
18973;SDS011;9621;48.690;9.466;2022-09-09T07:58:31;3.70;;;1.50;;
18973;SDS011;9621;48.690;9.466;2022-09-09T08:00:59;2.58;;;1.30;;
18973;SDS011;9621;48.690;9.466;2022-09-09T08:03:27;2.85;;;1.27;;
18973;SDS011;9621;48.690;9.466;2022-09-09T08:05:59;3.53;;;1.58;;
18973;SDS011;9621;48.690;9.466;2022-09-09T08:08:27;2.90;;;1.40;;
18973;SDS011;9621;48.690;9.466;2022-09-09T08:11:00;4.53;;;1.27;;
18973;SDS011;9621;48.690;9.466;2022-09-09T08:13:29;3.00;;;1.08;;
18973;SDS011;9621;48.690;9.466;2022-09-09T08:16:03;4.15;;;1.20;;
18973;SDS011;9621;48.690;9.466;2022-09-09T08:18:33;5.30;;;1.55;;
18973;SDS011;9621;48.690;9.466;2022-09-09T08:21:07;2.22;;;1.13;;
18973;SDS011;9621;48.690;9.466;2022-09-09T08:23:36;3.38;;;1.15;;
18973;SDS011;9621;48.690;9.466;2022-09-09T08:26:08;2.75;;;1.40;;
18973;SDS011;9621;48.690;9.466;2022-09-09T08:28:37;2.92;;;1.10;;
18973;SDS011;9621;48.690;9.466;2022-09-09T08:31:09;4.20;;;1.25;;
18973;SDS011;9621;48.690;9.466;2022-09-09T08:33:39;2.60;;;1.05;;
18973;SDS011;9621;48.690;9.466;2022-09-09T08:36:08;2.50;;;0.90;;
18973;SDS011;9621;48.690;9.466;2022-09-09T08:38:36;2.92;;;0.82;;
18973;SDS011;9621;48.690;9.466;2022-09-09T08:41:07;4.13;;;0.90;;
18973;SDS011;9621;48.690;9.466;2022-09-09T08:43:58;1.73;;;0.88;;
18973;SDS011;9621;48.690;9.466;2022-09-09T08:46:29;3.42;;;1.20;;
18973;SDS011;9621;48.690;9.466;2022-09-09T08:49:09;2.70;;;0.90;;
18973;SDS011;9621;48.690;9.466;2022-09-09T08:51:47;3.22;;;0.70;;
18973;SDS011;9621;48.690;9.466;2022-09-09T08:54:15;1.83;;;0.70;;
18973;SDS011;9621;48.690;9.466;2022-09-09T08:56:43;2.28;;;0.93;;
18973;SDS011;9621;48.690;9.466;2022-09-09T08:59:11;2.22;;;0.95;;
18973;SDS011;9621;48.690;9.466;2022-09-09T09:01:59;3.22;;;0.90;;
18973;SDS011;9621;48.690;9.466;2022-09-09T09:04:41;3.03;;;0.98;;
18973;SDS011;9621;48.690;9.466;2022-09-09T09:07:22;1.85;;;1.00;;
18973;SDS011;9621;48.690;9.466;2022-09-09T09:10:00;3.15;;;1.00;;
18973;SDS011;9621;48.690;9.466;2022-09-09T09:12:38;1.63;;;1.10;;
18973;SDS011;9621;48.690;9.466;2022-09-09T09:15:10;3.03;;;0.90;;
18973;SDS011;9621;48.690;9.466;2022-09-09T09:17:42;1.20;;;0.70;;
18973;SDS011;9621;48.690;9.466;2022-09-09T09:20:12;3.47;;;1.40;;
18973;SDS011;9621;48.690;9.466;2022-09-09T09:22:44;5.15;;;0.90;;
18973;SDS011;9621;48.690;9.466;2022-09-09T09:25:16;5.45;;;1.17;;
18973;SDS011;9621;48.690;9.466;2022-09-09T09:27:47;1.63;;;0.70;;
18973;SDS011;9621;48.690;9.466;2022-09-09T09:30:22;1.98;;;0.70;;
18973;SDS011;9621;48.690;9.466;2022-09-09T09:32:54;3.20;;;1.10;;
18973;SDS011;9621;48.690;9.466;2022-09-09T09:35:27;4.03;;;1.02;;
18973;SDS011;9621;48.690;9.466;2022-09-09T09:37:54;2.45;;;0.90;;
18973;SDS011;9621;48.690;9.466;2022-09-09T09:40:21;4.63;;;1.38;;
18973;SDS011;9621;48.690;9.466;2022-09-09T09:42:49;1.98;;;0.85;;
18973;SDS011;9621;48.690;9.466;2022-09-09T09:45:23;3.80;;;0.73;;
18973;SDS011;9621;48.690;9.466;2022-09-09T09:47:58;5.43;;;0.90;;
18973;SDS011;9621;48.690;9.466;2022-09-09T09:50:28;3.95;;;0.88;;
18973;SDS011;9621;48.690;9.466;2022-09-09T09:52:56;3.95;;;1.20;;
18973;SDS011;9621;48.690;9.466;2022-09-09T09:55:25;1.90;;;0.80;;
18973;SDS011;9621;48.690;9.466;2022-09-09T09:58:00;4.40;;;1.13;;
18973;SDS011;9621;48.690;9.466;2022-09-09T10:00:28;4.93;;;1.10;;
18973;SDS011;9621;48.690;9.466;2022-09-09T10:02:55;2.92;;;0.80;;
18973;SDS011;9621;48.690;9.466;2022-09-09T10:05:24;2.60;;;1.00;;
18973;SDS011;9621;48.690;9.466;2022-09-09T10:08:05;3.47;;;0.80;;
18973;SDS011;9621;48.690;9.466;2022-09-09T10:10:46;3.03;;;0.70;;
18973;SDS011;9621;48.690;9.466;2022-09-09T10:13:46;3.53;;;0.80;;
18973;SDS011;9621;48.690;9.466;2022-09-09T10:16:23;2.45;;;1.20;;
18973;SDS011;9621;48.690;9.466;2022-09-09T10:18:58;3.20;;;0.90;;
18973;SDS011;9621;48.690;9.466;2022-09-09T10:21:38;3.55;;;0.60;;
18973;SDS011;9621;48.690;9.466;2022-09-09T10:24:49;5.20;;;1.00;;
18973;SDS011;9621;48.690;9.466;2022-09-09T10:27:41;2.20;;;0.70;;
18973;SDS011;9621;48.690;9.466;2022-09-09T10:30:19;2.85;;;0.77;;
18973;SDS011;9621;48.690;9.466;2022-09-09T10:32:49;2.20;;;0.85;;
18973;SDS011;9621;48.690;9.466;2022-09-09T10:35:25;4.50;;;0.90;;
18973;SDS011;9621;48.690;9.466;2022-09-09T10:38:00;3.10;;;0.80;;
18973;SDS011;9621;48.690;9.466;2022-09-09T10:43:53;1.90;;;0.60;;
18973;SDS011;9621;48.690;9.466;2022-09-09T10:46:41;1.52;;;0.57;;
18973;SDS011;9621;48.690;9.466;2022-09-09T10:49:21;1.60;;;0.50;;
18973;SDS011;9621;48.690;9.466;2022-09-09T10:52:00;1.98;;;0.90;;
18973;SDS011;9621;48.690;9.466;2022-09-09T10:54:35;3.45;;;0.77;;
18973;SDS011;9621;48.690;9.466;2022-09-09T10:57:17;1.75;;;0.80;;
18973;SDS011;9621;48.690;9.466;2022-09-09T10:59:52;3.00;;;0.77;;
18973;SDS011;9621;48.690;9.466;2022-09-09T11:02:24;3.38;;;0.88;;
18973;SDS011;9621;48.690;9.466;2022-09-09T11:04:55;3.00;;;0.98;;
18973;SDS011;9621;48.690;9.466;2022-09-09T11:07:28;3.90;;;1.00;;
18973;SDS011;9621;48.690;9.466;2022-09-09T11:10:03;3.15;;;1.00;;
18973;SDS011;9621;48.690;9.466;2022-09-09T11:12:39;2.10;;;0.60;;
18973;SDS011;9621;48.690;9.466;2022-09-09T11:15:13;1.50;;;0.70;;
18973;SDS011;9621;48.690;9.466;2022-09-09T11:17:46;2.38;;;0.90;;
18973;SDS011;9621;48.690;9.466;2022-09-09T11:20:16;1.17;;;0.60;;
18973;SDS011;9621;48.690;9.466;2022-09-09T11:22:44;2.17;;;0.80;;
18973;SDS011;9621;48.690;9.466;2022-09-09T11:25:17;2.80;;;1.00;;
18973;SDS011;9621;48.690;9.466;2022-09-09T11:27:56;2.78;;;0.60;;
18973;SDS011;9621;48.690;9.466;2022-09-09T11:30:36;1.52;;;1.00;;
18973;SDS011;9621;48.690;9.466;2022-09-09T11:33:29;3.08;;;0.93;;
18973;SDS011;9621;48.690;9.466;2022-09-09T11:39:05;8.18;;;0.73;;
18973;SDS011;9621;48.690;9.466;2022-09-09T11:41:46;2.72;;;0.55;;
18973;SDS011;9621;48.690;9.466;2022-09-09T11:44:17;5.88;;;0.60;;
18973;SDS011;9621;48.690;9.466;2022-09-09T11:46:49;2.05;;;0.47;;
18973;SDS011;9621;48.690;9.466;2022-09-09T11:49:25;3.28;;;0.63;;
18973;SDS011;9621;48.690;9.466;2022-09-09T11:51:53;2.60;;;0.70;;
18973;SDS011;9621;48.690;9.466;2022-09-09T11:54:28;3.80;;;0.60;;
18973;SDS011;9621;48.690;9.466;2022-09-09T11:56:56;3.58;;;0.90;;
18973;SDS011;9621;48.690;9.466;2022-09-09T11:59:25;1.38;;;0.45;;
18973;SDS011;9621;48.690;9.466;2022-09-09T12:01:54;1.20;;;0.60;;
18973;SDS011;9621;48.690;9.466;2022-09-09T12:04:28;6.97;;;0.93;;
18973;SDS011;9621;48.690;9.466;2022-09-09T12:07:02;1.90;;;0.63;;
18973;SDS011;9621;48.690;9.466;2022-09-09T12:12:22;2.45;;;0.90;;
18973;SDS011;9621;48.690;9.466;2022-09-09T12:14:56;1.63;;;0.68;;
18973;SDS011;9621;48.690;9.466;2022-09-09T12:17:26;1.13;;;0.50;;
18973;SDS011;9621;48.690;9.466;2022-09-09T12:20:02;2.03;;;0.80;;
18973;SDS011;9621;48.690;9.466;2022-09-09T12:22:39;3.70;;;0.93;;
18973;SDS011;9621;48.690;9.466;2022-09-09T12:25:27;2.53;;;0.63;;
18973;SDS011;9621;48.690;9.466;2022-09-09T12:28:01;2.10;;;0.80;;
18973;SDS011;9621;48.690;9.466;2022-09-09T12:30:34;2.20;;;0.80;;
18973;SDS011;9621;48.690;9.466;2022-09-09T12:33:08;1.45;;;0.50;;
18973;SDS011;9621;48.690;9.466;2022-09-09T12:35:38;2.10;;;0.50;;
18973;SDS011;9621;48.690;9.466;2022-09-09T12:38:09;1.42;;;0.50;;
18973;SDS011;9621;48.690;9.466;2022-09-09T12:40:41;1.73;;;0.40;;
18973;SDS011;9621;48.690;9.466;2022-09-09T12:43:18;0.50;;;0.20;;
18973;SDS011;9621;48.690;9.466;2022-09-09T12:45:48;0.75;;;0.20;;
18973;SDS011;9621;48.690;9.466;2022-09-09T12:48:21;0.98;;;0.38;;
18973;SDS011;9621;48.690;9.466;2022-09-09T12:50:55;0.38;;;0.22;;
18973;SDS011;9621;48.690;9.466;2022-09-09T12:53:23;1.98;;;0.50;;
18973;SDS011;9621;48.690;9.466;2022-09-09T12:55:53;2.38;;;0.38;;
18973;SDS011;9621;48.690;9.466;2022-09-09T12:58:22;1.10;;;0.30;;
18973;SDS011;9621;48.690;9.466;2022-09-09T13:00:51;1.10;;;0.38;;
18973;SDS011;9621;48.690;9.466;2022-09-09T13:03:21;1.10;;;0.38;;
18973;SDS011;9621;48.690;9.466;2022-09-09T13:05:50;0.98;;;0.30;;
18973;SDS011;9621;48.690;9.466;2022-09-09T13:08:18;3.03;;;0.38;;
18973;SDS011;9621;48.690;9.466;2022-09-09T13:10:46;1.85;;;0.43;;
18973;SDS011;9621;48.690;9.466;2022-09-09T13:13:17;1.92;;;0.50;;
18973;SDS011;9621;48.690;9.466;2022-09-09T13:15:52;3.50;;;0.50;;
18973;SDS011;9621;48.690;9.466;2022-09-09T13:18:22;2.53;;;0.80;;
18973;SDS011;9621;48.690;9.466;2022-09-09T13:20:51;2.10;;;0.60;;
18973;SDS011;9621;48.690;9.466;2022-09-09T13:23:18;2.85;;;0.52;;
18973;SDS011;9621;48.690;9.466;2022-09-09T13:25:53;2.65;;;0.43;;
18973;SDS011;9621;48.690;9.466;2022-09-09T13:28:21;3.80;;;0.63;;
18973;SDS011;9621;48.690;9.466;2022-09-09T13:30:57;2.28;;;0.63;;
18973;SDS011;9621;48.690;9.466;2022-09-09T13:33:29;2.25;;;0.60;;
18973;SDS011;9621;48.690;9.466;2022-09-09T13:36:03;3.67;;;0.70;;
18973;SDS011;9621;48.690;9.466;2022-09-09T13:38:32;1.27;;;0.40;;
18973;SDS011;9621;48.690;9.466;2022-09-09T13:41:03;2.03;;;0.47;;
18973;SDS011;9621;48.690;9.466;2022-09-09T13:43:31;2.70;;;0.57;;
18973;SDS011;9621;48.690;9.466;2022-09-09T13:46:04;2.08;;;0.52;;
18973;SDS011;9621;48.690;9.466;2022-09-09T13:48:53;1.13;;;0.55;;
18973;SDS011;9621;48.690;9.466;2022-09-09T13:51:26;1.13;;;0.40;;
18973;SDS011;9621;48.690;9.466;2022-09-09T13:53:58;1.85;;;0.60;;
18973;SDS011;9621;48.690;9.466;2022-09-09T13:56:25;2.08;;;0.60;;
18973;SDS011;9621;48.690;9.466;2022-09-09T13:58:52;1.27;;;0.43;;
18973;SDS011;9621;48.690;9.466;2022-09-09T14:01:20;3.08;;;0.50;;
18973;SDS011;9621;48.690;9.466;2022-09-09T14:03:47;1.75;;;0.65;;
18973;SDS011;9621;48.690;9.466;2022-09-09T14:06:15;1.73;;;0.60;;
18973;SDS011;9621;48.690;9.466;2022-09-09T14:08:43;1.33;;;0.40;;
18973;SDS011;9621;48.690;9.466;2022-09-09T14:11:11;4.85;;;0.73;;
18973;SDS011;9621;48.690;9.466;2022-09-09T14:13:39;2.38;;;0.70;;
18973;SDS011;9621;48.690;9.466;2022-09-09T14:16:06;1.90;;;0.60;;
18973;SDS011;9621;48.690;9.466;2022-09-09T14:18:36;3.50;;;1.40;;
18973;SDS011;9621;48.690;9.466;2022-09-09T14:21:04;3.13;;;0.98;;
18973;SDS011;9621;48.690;9.466;2022-09-09T14:23:30;3.05;;;0.70;;
18973;SDS011;9621;48.690;9.466;2022-09-09T14:25:57;2.20;;;0.98;;
18973;SDS011;9621;48.690;9.466;2022-09-09T14:28:24;3.55;;;0.73;;
18973;SDS011;9621;48.690;9.466;2022-09-09T14:30:51;1.75;;;0.88;;
18973;SDS011;9621;48.690;9.466;2022-09-09T14:33:18;2.92;;;1.45;;
18973;SDS011;9621;48.690;9.466;2022-09-09T14:35:46;2.72;;;0.93;;
18973;SDS011;9621;48.690;9.466;2022-09-09T14:38:13;1.85;;;0.90;;
18973;SDS011;9621;48.690;9.466;2022-09-09T14:40:40;3.63;;;1.35;;
18973;SDS011;9621;48.690;9.466;2022-09-09T14:43:10;1.92;;;1.17;;
18973;SDS011;9621;48.690;9.466;2022-09-09T14:45:38;2.20;;;0.90;;
18973;SDS011;9621;48.690;9.466;2022-09-09T14:48:05;2.60;;;0.93;;
18973;SDS011;9621;48.690;9.466;2022-09-09T14:50:32;2.88;;;0.80;;
18973;SDS011;9621;48.690;9.466;2022-09-09T14:53:01;1.67;;;0.90;;
18973;SDS011;9621;48.690;9.466;2022-09-09T14:55:28;2.85;;;0.93;;
18973;SDS011;9621;48.690;9.466;2022-09-09T14:57:55;3.78;;;0.85;;
18973;SDS011;9621;48.690;9.466;2022-09-09T15:00:22;4.03;;;0.88;;
18973;SDS011;9621;48.690;9.466;2022-09-09T15:02:51;3.90;;;0.88;;
18973;SDS011;9621;48.690;9.466;2022-09-09T15:05:18;1.80;;;0.60;;
18973;SDS011;9621;48.690;9.466;2022-09-09T15:07:45;1.90;;;0.40;;
18973;SDS011;9621;48.690;9.466;2022-09-09T15:10:14;3.13;;;0.90;;
18973;SDS011;9621;48.690;9.466;2022-09-09T15:12:42;1.65;;;0.60;;
18973;SDS011;9621;48.690;9.466;2022-09-09T15:15:09;1.48;;;0.52;;
18973;SDS011;9621;48.690;9.466;2022-09-09T15:17:37;2.05;;;0.57;;
18973;SDS011;9621;48.690;9.466;2022-09-09T15:20:04;2.47;;;0.57;;
18973;SDS011;9621;48.690;9.466;2022-09-09T15:22:32;1.80;;;0.50;;
18973;SDS011;9621;48.690;9.466;2022-09-09T15:25:01;1.33;;;0.50;;
18973;SDS011;9621;48.690;9.466;2022-09-09T15:27:30;2.40;;;0.70;;
18973;SDS011;9621;48.690;9.466;2022-09-09T15:29:56;4.07;;;0.50;;
18973;SDS011;9621;48.690;9.466;2022-09-09T15:32:24;1.70;;;0.35;;
18973;SDS011;9621;48.690;9.466;2022-09-09T15:34:50;0.93;;;0.60;;
18973;SDS011;9621;48.690;9.466;2022-09-09T15:37:18;1.85;;;0.60;;
18973;SDS011;9621;48.690;9.466;2022-09-09T15:39:45;2.00;;;0.43;;
18973;SDS011;9621;48.690;9.466;2022-09-09T15:42:13;3.60;;;0.70;;
18973;SDS011;9621;48.690;9.466;2022-09-09T15:44:41;1.60;;;0.50;;
18973;SDS011;9621;48.690;9.466;2022-09-09T15:47:10;5.07;;;0.40;;
18973;SDS011;9621;48.690;9.466;2022-09-09T15:49:38;2.97;;;0.60;;
18973;SDS011;9621;48.690;9.466;2022-09-09T15:52:05;2.40;;;0.70;;
18973;SDS011;9621;48.690;9.466;2022-09-09T15:54:33;3.70;;;3.17;;
18973;SDS011;9621;48.690;9.466;2022-09-09T15:57:04;4.70;;;3.45;;
18973;SDS011;9621;48.690;9.466;2022-09-09T15:59:32;4.00;;;3.30;;
18973;SDS011;9621;48.690;9.466;2022-09-09T16:02:01;4.20;;;3.47;;
18973;SDS011;9621;48.690;9.466;2022-09-09T16:04:30;6.45;;;3.40;;
18973;SDS011;9621;48.690;9.466;2022-09-09T16:06:58;3.88;;;3.53;;
18973;SDS011;9621;48.690;9.466;2022-09-09T16:09:26;3.80;;;3.50;;
18973;SDS011;9621;48.690;9.466;2022-09-09T16:11:55;4.82;;;3.53;;
18973;SDS011;9621;48.690;9.466;2022-09-09T16:14:23;4.10;;;3.67;;
18973;SDS011;9621;48.690;9.466;2022-09-09T16:16:50;3.97;;;3.58;;
18973;SDS011;9621;48.690;9.466;2022-09-09T16:19:18;3.97;;;3.67;;
18973;SDS011;9621;48.690;9.466;2022-09-09T16:21:46;4.82;;;3.90;;
18973;SDS011;9621;48.690;9.466;2022-09-09T16:24:15;6.15;;;4.32;;
18973;SDS011;9621;48.690;9.466;2022-09-09T16:26:44;4.72;;;4.32;;
18973;SDS011;9621;48.690;9.466;2022-09-09T16:29:13;5.38;;;4.30;;
18973;SDS011;9621;48.690;9.466;2022-09-09T16:31:42;11.30;;;6.55;;
18973;SDS011;9621;48.690;9.466;2022-09-09T16:34:09;4.82;;;4.53;;
18973;SDS011;9621;48.690;9.466;2022-09-09T16:36:39;4.25;;;4.00;;
18973;SDS011;9621;48.690;9.466;2022-09-09T16:39:08;4.30;;;4.00;;
18973;SDS011;9621;48.690;9.466;2022-09-09T16:41:36;4.40;;;4.10;;
18973;SDS011;9621;48.690;9.466;2022-09-09T16:44:05;4.15;;;3.85;;
18973;SDS011;9621;48.690;9.466;2022-09-09T16:46:33;4.32;;;4.00;;
18973;SDS011;9621;48.690;9.466;2022-09-09T16:49:01;4.70;;;4.38;;
18973;SDS011;9621;48.690;9.466;2022-09-09T16:51:31;4.10;;;3.80;;
18973;SDS011;9621;48.690;9.466;2022-09-09T16:54:01;4.90;;;4.40;;
18973;SDS011;9621;48.690;9.466;2022-09-09T16:56:29;4.35;;;4.00;;
18973;SDS011;9621;48.690;9.466;2022-09-09T16:58:59;4.45;;;4.05;;
18973;SDS011;9621;48.690;9.466;2022-09-09T17:01:28;4.78;;;4.40;;
18973;SDS011;9621;48.690;9.466;2022-09-09T17:03:58;4.22;;;3.92;;
18973;SDS011;9621;48.690;9.466;2022-09-09T17:06:27;5.90;;;4.47;;
18973;SDS011;9621;48.690;9.466;2022-09-09T17:08:55;4.82;;;4.22;;
18973;SDS011;9621;48.690;9.466;2022-09-09T17:11:24;4.07;;;3.78;;
18973;SDS011;9621;48.690;9.466;2022-09-09T17:13:51;4.38;;;4.07;;
18973;SDS011;9621;48.690;9.466;2022-09-09T17:16:20;4.15;;;3.90;;
18973;SDS011;9621;48.690;9.466;2022-09-09T17:18:48;4.60;;;4.40;;
18973;SDS011;9621;48.690;9.466;2022-09-09T17:21:16;4.65;;;4.30;;
18973;SDS011;9621;48.690;9.466;2022-09-09T17:23:45;5.15;;;4.75;;
18973;SDS011;9621;48.690;9.466;2022-09-09T17:26:13;5.05;;;4.75;;
18973;SDS011;9621;48.690;9.466;2022-09-09T17:28:43;4.35;;;4.05;;
18973;SDS011;9621;48.690;9.466;2022-09-09T17:31:11;4.60;;;4.30;;
18973;SDS011;9621;48.690;9.466;2022-09-09T17:33:40;5.03;;;4.63;;
18973;SDS011;9621;48.690;9.466;2022-09-09T17:36:09;4.68;;;4.28;;
18973;SDS011;9621;48.690;9.466;2022-09-09T17:38:37;4.78;;;4.38;;
18973;SDS011;9621;48.690;9.466;2022-09-09T17:41:06;4.65;;;4.35;;
18973;SDS011;9621;48.690;9.466;2022-09-09T17:43:34;5.05;;;4.65;;
18973;SDS011;9621;48.690;9.466;2022-09-09T17:46:07;4.60;;;4.30;;
18973;SDS011;9621;48.690;9.466;2022-09-09T17:48:35;4.90;;;4.40;;
18973;SDS011;9621;48.690;9.466;2022-09-09T17:51:03;5.05;;;4.70;;
18973;SDS011;9621;48.690;9.466;2022-09-09T17:53:35;4.93;;;4.55;;
18973;SDS011;9621;48.690;9.466;2022-09-09T17:56:03;5.72;;;4.80;;
18973;SDS011;9621;48.690;9.466;2022-09-09T17:58:31;5.07;;;4.72;;
18973;SDS011;9621;48.690;9.466;2022-09-09T18:01:01;5.40;;;4.90;;
18973;SDS011;9621;48.690;9.466;2022-09-09T18:03:31;5.20;;;4.43;;
18973;SDS011;9621;48.690;9.466;2022-09-09T18:06:00;4.97;;;4.60;;
18973;SDS011;9621;48.690;9.466;2022-09-09T18:08:27;5.43;;;5.03;;
18973;SDS011;9621;48.690;9.466;2022-09-09T18:10:54;5.57;;;5.15;;
18973;SDS011;9621;48.690;9.466;2022-09-09T18:13:21;4.90;;;4.60;;
18973;SDS011;9621;48.690;9.466;2022-09-09T18:15:49;5.03;;;4.70;;
18973;SDS011;9621;48.690;9.466;2022-09-09T18:18:16;4.95;;;4.55;;
18973;SDS011;9621;48.690;9.466;2022-09-09T18:20:45;5.03;;;4.63;;
18973;SDS011;9621;48.690;9.466;2022-09-09T18:23:12;5.40;;;5.00;;
18973;SDS011;9621;48.690;9.466;2022-09-09T18:25:39;4.85;;;4.50;;
18973;SDS011;9621;48.690;9.466;2022-09-09T18:28:08;4.53;;;4.32;;
18973;SDS011;9621;48.690;9.466;2022-09-09T18:30:37;4.47;;;4.28;;
18973;SDS011;9621;48.690;9.466;2022-09-09T18:33:05;7.90;;;5.22;;
18973;SDS011;9621;48.690;9.466;2022-09-09T18:35:34;5.53;;;4.75;;
18973;SDS011;9621;48.690;9.466;2022-09-09T18:38:03;5.10;;;4.65;;
18973;SDS011;9621;48.690;9.466;2022-09-09T18:40:30;5.45;;;4.93;;
18973;SDS011;9621;48.690;9.466;2022-09-09T18:42:57;5.65;;;4.60;;
18973;SDS011;9621;48.690;9.466;2022-09-09T18:45:25;5.03;;;4.70;;
18973;SDS011;9621;48.690;9.466;2022-09-09T18:47:52;5.07;;;4.78;;
18973;SDS011;9621;48.690;9.466;2022-09-09T18:50:20;5.57;;;5.18;;
18973;SDS011;9621;48.690;9.466;2022-09-09T18:52:47;5.88;;;4.85;;
18973;SDS011;9621;48.690;9.466;2022-09-09T18:55:16;4.95;;;4.55;;
18973;SDS011;9621;48.690;9.466;2022-09-09T18:57:43;5.75;;;5.18;;
18973;SDS011;9621;48.690;9.466;2022-09-09T19:00:10;5.95;;;5.45;;
18973;SDS011;9621;48.690;9.466;2022-09-09T19:02:38;5.88;;;5.38;;
18973;SDS011;9621;48.690;9.466;2022-09-09T19:05:05;5.28;;;4.88;;
18973;SDS011;9621;48.690;9.466;2022-09-09T19:07:32;5.05;;;4.72;;
18973;SDS011;9621;48.690;9.466;2022-09-09T19:09:59;5.72;;;5.22;;
18973;SDS011;9621;48.690;9.466;2022-09-09T19:12:28;5.53;;;5.05;;
18973;SDS011;9621;48.690;9.466;2022-09-09T19:14:55;5.30;;;4.90;;
18973;SDS011;9621;48.690;9.466;2022-09-09T19:17:22;5.97;;;5.43;;
18973;SDS011;9621;48.690;9.466;2022-09-09T19:19:50;6.88;;;5.80;;
18973;SDS011;9621;48.690;9.466;2022-09-09T19:22:17;12.07;;;9.55;;
18973;SDS011;9621;48.690;9.466;2022-09-09T19:24:44;9.18;;;8.00;;
18973;SDS011;9621;48.690;9.466;2022-09-09T19:27:12;11.73;;;9.32;;
18973;SDS011;9621;48.690;9.466;2022-09-09T19:29:40;17.70;;;11.52;;
18973;SDS011;9621;48.690;9.466;2022-09-09T19:32:08;30.65;;;18.08;;
18973;SDS011;9621;48.690;9.466;2022-09-09T19:34:36;22.92;;;15.90;;
18973;SDS011;9621;48.690;9.466;2022-09-09T19:37:03;17.73;;;12.02;;
